This is the latest recevied weather packets stored in our database for station/object DL1GRJ-13. If no packets are shown the sender has not sent any weather packets the latest 1 day(s).
| Time | Temp. | Humidity | Pressure | Rain* | Wind** | Luminosity | Snow |
|---|---|---|---|---|---|---|---|
| 1778094081 | 6.67° C | 79% | 1011.7 hPa | - | - | - | - |
| 1778085080 | 8.33° C | 76% | 1010.7 hPa | - | - | - | - |
| 1778083280 | 7.78° C | 76% | 1010.6 hPa | - | - | - | - |
| 1778081480 | 8.33° C | 74% | 1010.6 hPa | - | - | - | - |
| 1778079680 | 8.89° C | 73% | 1010.3 hPa | - | - | - | - |
| 1778068879 | 11.11° C | 71% | 1009.5 hPa | - | - | - | - |
| 1778067079 | 10.56° C | 71% | 1009.4 hPa | - | - | - | - |
| 1778065279 | 12.22° C | 66% | 1009.1 hPa | - | - | - | - |
| 1778058078 | 13.89° C | 56% | 1009.2 hPa | - | - | - | - |
| 1778056278 | 12.78° C | 59% | 1009 hPa | - | - | - | - |
| 1778054478 | 12.22° C | 65% | 1009 hPa | - | - | - | - |
| 1778052678 | 11.11° C | 69% | 1009.3 hPa | - | - | - | - |
| 1778050878 | 10° C | 72% | 1009.1 hPa | - | - | - | - |
| 1778045477 | 8.33° C | 74% | 1009.2 hPa | - | - | - | - |
| 1778043677 | 7.78° C | 75% | 1009.4 hPa | - | - | - | - |
| 1778041877 | 7.78° C | 76% | 1009.4 hPa | - | - | - | - |
| 1778040077 | 7.78° C | 76% | 1009.4 hPa | - | - | - | - |
| 1778038277 | 7.78° C | 75% | 1009.5 hPa | - | - | - | - |
| 1778036477 | 7.78° C | 74% | 1009.9 hPa | - | - | - | - |
| 1778031076 | 8.33° C | 73% | 1010.7 hPa | - | - | - | - |
| 1778029276 | 7.78° C | 75% | 1010.7 hPa | - | - | - | - |
| 1778027476 | 7.78° C | 73% | 1010.7 hPa | - | - | - | - |
| 1778023876 | 8.33° C | 72% | 1011.3 hPa | - | - | - | - |
* Rain since midnight (hover to see other rain measurements)
** Current wind speed in m/s (hover to see current wind gust speed)